Data for 04/30/2006

Time Sea-Level Adjusted Pressure Absolute Pressure Temperature Relative Humidity Dew Point   
(mb) (inHg) (mb) (inHg) (C) (F) (%) (C) (F)
00:05 1014 29.94 843 24.89 12.5 54.6 47 1.5 34.7
00:10 1014 29.94 843 24.89 12.4 54.3 47 1.4 34.5
00:15 1014 29.94 843 24.89 12.4 54.4 46 1.2 34.2
00:20 1014 29.94 843 24.89 12.6 54.7 46 1.2 34.2
00:25 1014 29.94 843 24.89 12.6 54.7 46 1.3 34.4
00:30 1014 29.94 843 24.89 12.5 54.5 46 1.3 34.4
00:35 1014 29.94 843 24.89 12.4 54.3 47 1.4 34.5
00:40 1014 29.94 843 24.89 12.2 54 47 1.2 34.2
00:45 1014 29.94 843 24.89 12.6 54.6 44 0.8 33.4
00:50 1014 29.94 843 24.89 12.7 54.9 44 1 33.7
00:55 1014 29.94 843 24.89 12.6 54.7 44 0.9 33.5
01:00 1014 29.94 843 24.89 12.4 54.3 48 1.6 35
01:05 1014 29.94 843 24.89 11.7 53.1 49 1.5 34.7
01:10 1014 29.94 843 24.89 11.5 52.6 49 1.3 34.3
01:15 1014 29.94 843 24.89 11.3 52.4 50 1.2 34.2
01:20 1014 29.94 843 24.89 11.2 52.2 51 1.5 34.7
01:25 1014 29.94 843 24.89 11 51.8 51 1.2 34.2
01:30 1014 29.94 843 24.89 11 51.7 51 1.2 34.2
01:35 1014 29.94 843 24.89 10.7 51.3 53 1.6 34.9
01:40 1014 29.94 843 24.89 10.6 51 53 1.4 34.4
01:45 1013 29.91 843 24.89 10.3 50.6 53 1.2 34.1
01:50 1013 29.91 843 24.89 10.4 50.7 53 1.2 34.1
01:55 1013 29.91 843 24.89 10.4 50.8 52 1 33.8
02:00 1013 29.91 843 24.89 10.2 50.4 54 1.3 34.4
02:05 1013 29.91 843 24.89 10.2 50.3 53 1.1 34
02:10 1013 29.91 843 24.89 10.3 50.5 53 1.1 33.9
02:15 1013 29.91 842 24.86 10.3 50.6 52 1 33.8
02:20 1013 29.91 842 24.86 10.3 50.5 52 1 33.8
02:25 1013 29.91 842 24.86 9.8 49.6 56 1.5 34.6
02:30 1013 29.91 842 24.86 9.4 49 56 1.2 34.2
02:35 1013 29.91 842 24.86 9.5 49.1 54 0.8 33.4
02:40 1013 29.91 842 24.86 9.7 49.5 53 0.7 33.3
02:45 1013 29.91 842 24.86 9.7 49.5 53 0.6 33
02:50 1013 29.91 842 24.86 9.9 49.8 52 0.5 32.9
02:55 1013 29.91 842 24.86 10.1 50.3 50 0.3 32.6
03:00 1013 29.91 842 24.86 10.2 50.4 50 0.2 32.4
03:05 1013 29.91 842 24.86 10.3 50.5 50 0.4 32.8
03:10 1013 29.91 842 24.86 10.4 50.7 48 0 32
03:15 1013 29.91 843 24.89 10.4 50.8 50 0.5 33
03:20 1013 29.91 843 24.89 10.3 50.6 51 0.7 33.3
03:25 1014 29.94 843 24.89 10.3 50.5 51 0.6 33
03:30 1014 29.94 843 24.89 10.5 51 50 0.5 32.9
03:35 1014 29.94 843 24.89 10.5 50.9 50 0.6 33
03:40 1013 29.91 843 24.89 10.3 50.5 52 0.9 33.5
03:45 1013 29.91 843 24.89 10.2 50.3 50 0.3 32.5
03:50 1013 29.91 843 24.89 10.4 50.6 50 0.4 32.7
03:55 1014 29.94 843 24.89 10.3 50.5 50 0.4 32.8
04:00 1014 29.94 843 24.89 10.3 50.5 50 0.3 32.6
04:05 1014 29.94 843 24.89 10.4 50.6 49 0.3 32.5
04:10 1014 29.94 843 24.89 10.3 50.6 50 0.3 32.6
04:15 1014 29.94 843 24.89 10.2 50.4 50 0.3 32.6
04:20 1014 29.94 843 24.89 10.2 50.3 51 0.5 32.9
04:25 1014 29.94 843 24.89 10.2 50.3 51 0.5 32.9
04:30 1014 29.94 843 24.89 10.3 50.5 50 0.4 32.8
04:35 1014 29.94 843 24.89 10.6 51.1 50 0.7 33.2
04:40 1014 29.94 843 24.89 10.6 51 54 1.6 35
04:45 1014 29.94 843 24.89 10.1 50.1 55 1.5 34.6
04:50 1014 29.94 843 24.89 9.9 49.8 58 2 35.6
04:55 1014 29.94 843 24.89 9.5 49.2 61 2.5 36.6
05:00 1014 29.94 844 24.92 9.1 48.3 63 2.4 36.3
05:05 1015 29.97 844 24.92 9 48.3 63 2.4 36.4
05:10 1015 29.97 844 24.92 9.4 48.9 61 2.2 36
05:15 1015 29.97 844 24.92 9.8 49.7 59 2.2 35.9
05:20 1015 29.97 844 24.92 10.1 50.1 58 2.4 36.2
05:25 1015 29.97 844 24.92 10.2 50.4 62 3.2 37.8
05:30 1015 29.97 844 24.92 10.2 50.3 68 4.6 40.3
05:35 1015 29.97 844 24.92 9.8 49.6 71 4.7 40.5
05:40 1015 29.97 844 24.92 9.6 49.3 71 4.5 40.1
05:45 1015 29.97 844 24.92 9.7 49.4 66 3.6 38.5
05:50 1015 29.97 844 24.92 10 50.1 68 4.4 40
05:55 1015 29.97 844 24.92 10.2 50.4 70 5.1 41.1
06:00 1015 29.97 844 24.92 10.1 50.1 74 5.6 42.1
06:05 1015 29.97 844 24.92 9.9 49.8 75 5.6 42.1
06:10 1015 29.97 845 24.95 9.9 49.8 75 5.6 42.1
06:15 1015 29.97 845 24.95 9.9 49.8 74 5.5 41.9
06:20 1016 30 845 24.95 9.7 49.5 79 6.3 43.3
06:25 1016 30 845 24.95 9.3 48.7 83 6.5 43.8
06:30 1016 30 845 24.95 8.9 47.9 86 6.7 44.1
06:35 1016 30 845 24.95 8.5 47.4 88 6.7 44
06:40 1016 30 845 24.95 8.3 46.9 90 6.7 44
06:45 1016 30 845 24.95 8.1 46.7 90 6.5 43.8
06:50 1016 30 845 24.95 8.2 46.7 89 6.5 43.8
06:55 1016 30 845 24.95 8.1 46.6 91 6.7 44
07:00 1016 30 846 24.98 8.1 46.5 91 6.7 44
07:05 1016 30 846 24.98 8.1 46.5 90 6.6 43.9
07:10 1016 30 845 24.95 8 46.4 92 6.8 44.3
07:15 1016 30 845 24.95 7.8 46 93 6.7 44
07:20 1016 30 845 24.95 7.7 45.9 90 6.3 43.3
07:25 1016 30 845 24.95 7.9 46.3 92 6.6 43.9
07:30 1016 30 845 24.95 7.9 46.3 90 6.3 43.4
07:35 1016 30 845 24.95 8.1 46.5 87 6.1 42.9
07:40 1016 30 845 24.95 8.3 47 87 6.2 43.2
07:45 1016 30 845 24.95 8.4 47.1 87 6.4 43.5
07:50 1016 30 845 24.95 8.5 47.3 87 6.5 43.7
07:55 1016 30 845 24.95 8.5 47.3 85 6.2 43.2
08:00 1016 30 845 24.95 8.6 47.4 84 6 42.9
08:05 1016 30 845 24.95 8.6 47.4 84 6 42.9
08:10 1016 30 845 24.95 8.7 47.7 80 5.5 41.8
08:15 1016 30 845 24.95 8.9 48 79 5.5 42
08:20 1016 30 845 24.95 9 48.1 79 5.5 41.9
08:25 1016 30 845 24.95 8.9 48.1 75 4.8 40.6
08:30 1016 30 845 24.95 8.9 48 77 5.2 41.3
08:35 1016 30 845 24.95 8.7 47.7 79 5.4 41.7
08:40 1016 30 845 24.95 8.7 47.6 80 5.4 41.7
08:45 1016 30 845 24.95 8.7 47.6 82 5.8 42.4
08:50 1016 30 845 24.95 8.7 47.6 82 5.8 42.4
08:55 1016 30 845 24.95 8.8 47.8 81 5.7 42.3
09:00 1016 30 845 24.95 9.1 48.3 78 5.5 41.9
09:05 1016 30 845 24.95 9.3 48.8 78 5.7 42.3
09:10 1016 30 845 24.95 9.4 48.8 81 6.3 43.3
09:15 1016 30 845 24.95 9.3 48.7 81 6.3 43.3
09:20 1016 30 845 24.95 9.3 48.7 83 6.6 43.9
09:25 1016 30 845 24.95 9.3 48.8 84 6.8 44.2
09:30 1016 30 845 24.95 9.4 48.9 84 6.9 44.4
09:35 1016 30 845 24.95 9.5 49.1 84 6.9 44.5
09:40 1016 30 845 24.95 9.6 49.3 83 6.9 44.5
09:45 1016 30 845 24.95 9.6 49.2 84 6.9 44.4
09:50 1016 30 845 24.95 9.6 49.3 85 7.2 44.9
09:55 1016 30 845 24.95 9.7 49.5 80 6.5 43.6
10:00 1016 30 845 24.95 10 50 80 6.8 44.2
10:05 1016 30 845 24.95 10.7 51.3 78 7.1 44.7
10:10 1016 30 845 24.95 11.3 52.3 73 6.7 44
10:15 1016 30 845 24.95 12 53.7 73 7.4 45.4
10:20 1016 30 845 24.95 12.4 54.3 73 7.6 45.7
10:25 1016 30 845 24.95 11.8 53.2 74 7.4 45.3
10:30 1016 30 845 24.95 11.6 52.8 73 6.9 44.5
10:35 1016 30 845 24.95 11.6 53 73 6.9 44.5
10:40 1016 30 845 24.95 11 51.9 77 7.1 44.9
10:45 1016 30 845 24.95 10.9 51.6 74 6.4 43.6
10:50 1016 30 846 24.98 10.7 51.2 75 6.5 43.6
10:55 1017 30.03 846 24.98 10.2 50.3 79 6.8 44.2
11:00 1017 30.03 846 24.98 9.6 49.4 83 6.9 44.5
11:05 1017 30.03 846 24.98 9.3 48.7 82 6.5 43.6
11:10 1017 30.03 846 24.98 9.2 48.6 84 6.7 44
11:15 1017 30.03 846 24.98 9.2 48.6 86 7 44.5
11:20 1017 30.03 846 24.98 9.2 48.6 86 7 44.5
11:25 1017 30.03 846 24.98 9.2 48.6 86 7 44.7
11:30 1017 30.03 846 24.98 9.4 48.8 88 7.4 45.4
11:35 1017 30.03 846 24.98 9.2 48.6 87 7.1 44.7
11:40 1017 30.03 846 24.98 8.9 48.1 84 6.4 43.5
11:45 1017 30.03 846 24.98 8.4 47 81 5.3 41.6
11:50 1017 30.03 846 24.98 8.2 46.8 80 5 41
11:55 1017 30.03 846 24.98 8.3 47 78 4.7 40.5
12:00 1017 30.03 846 24.98 8.5 47.2 80 5.2 41.3
12:05 1017 30.03 846 24.98 9.1 48.4 79 5.7 42.3
12:10 1017 30.03 847 25.01 9.2 48.6 78 5.6 42
12:15 1017 30.03 847 25.01 9.4 48.9 74 5 41
12:20 1017 30.03 847 25.01 9.5 49.2 75 5.4 41.7
12:25 1017 30.03 847 25.01 10.4 50.6 70 5.2 41.3
12:30 1017 30.03 847 25.01 10.2 50.3 69 4.8 40.6
12:35 1017 30.03 847 25.01 10 49.9 69 4.6 40.3
12:40 1018 30.06 847 25.01 10 50 69 4.7 40.4
12:45 1018 30.06 847 25.01 10 50 70 4.8 40.7
12:50 1018 30.06 847 25.01 10 50.1 70 4.9 40.7
12:55 1018 30.06 847 25.01 10.4 50.7 69 5 41
13:00 1018 30.06 847 25.01 11 51.7 67 5 41
13:05 1018 30.06 847 25.01 10.9 51.7 69 5.5 41.9
13:10 1018 30.06 847 25.01 10.9 51.6 66 4.8 40.6
13:15 1018 30.06 847 25.01 10.8 51.4 66 4.7 40.4
13:20 1018 30.06 847 25.01 10.8 51.5 64 4.3 39.7
13:25 1018 30.06 847 25.01 11 51.7 65 4.8 40.6
13:30 1018 30.06 847 25.01 11.3 52.4 64 4.8 40.6
13:35 1018 30.06 847 25.01 11.4 52.5 64 5 40.9
13:40 1018 30.06 847 25.01 11.9 53.5 64 5.4 41.7
13:45 1017 30.03 847 25.01 11.3 52.3 68 5.6 42.2
13:50 1017 30.03 847 25.01 11.6 52.8 68 5.8 42.5
13:55 1017 30.03 847 25.01 12.1 53.7 66 6 42.8
14:00 1017 30.03 847 25.01 11.6 52.9 63 4.9 40.9
14:05 1017 30.03 847 25.01 12 53.6 64 5.4 41.6
14:10 1017 30.03 847 25.01 12.1 53.8 62 5.1 41.3
14:15 1017 30.03 847 25.01 12.3 54.1 57 4 39.2
14:20 1017 30.03 847 25.01 13.1 55.5 55 4.3 39.7
14:25 1017 30.03 847 25.01 14 57.2 51 4.2 39.5
14:30 1017 30.03 846 24.98 14.7 58.5 49 4.1 39.3
14:35 1017 30.03 847 25.01 14.7 58.5 51 4.8 40.7
14:40 1017 30.03 846 24.98 14.4 57.8 52 4.7 40.5
14:45 1017 30.03 847 25.01 14.3 57.7 48 3.5 38.4
14:50 1017 30.03 846 24.98 13.9 56.9 51 3.9 39
14:55 1017 30.03 846 24.98 14.3 57.7 50 4 39.1
15:00 1017 30.03 846 24.98 14.8 58.6 41 1.8 35.2
15:05 1017 30.03 846 24.98 14.5 58.1 44 2.4 36.3
15:10 1017 30.03 846 24.98 14.9 58.9 41 1.7 35.1
15:15 1017 30.03 846 24.98 15.2 59.3 39 1.2 34.2
15:20 1017 30.03 846 24.98 14.7 58.4 38 0.7 33.3
15:25 1017 30.03 846 24.98 14.8 58.6 34 -0.8 30.6
15:30 1017 30.03 846 24.98 15.2 59.3 33 -0.7 30.7
15:35 1017 30.03 846 24.98 15 59.1 34 -0.4 31.2
15:40 1017 30.03 846 24.98 15.1 59.2 31 -1.7 28.9
15:45 1017 30.03 846 24.98 14.8 58.7 29 -2.9 26.9
15:50 1017 30.03 846 24.98 15.2 59.4 29 -2.6 27.3
15:55 1017 30.03 846 24.98 15.8 60.4 26 -3.5 25.7
16:00 1017 30.03 846 24.98 15.6 60 28 -2.7 27.1
16:05 1017 30.03 846 24.98 15.6 60.1 28 -2.9 26.8
16:10 1017 30.03 846 24.98 15.4 59.6 26 -3.8 25.2
16:15 1017 30.03 846 24.98 15.4 59.7 26 -4.1 24.6
16:20 1017 30.03 846 24.98 15.5 59.8 25 -4.6 23.8
16:25 1017 30.03 846 24.98 15.5 59.8 26 -4 24.8
16:30 1017 30.03 846 24.98 15.9 60.7 25 -3.9 25
16:35 1017 30.03 846 24.98 16.6 61.8 25 -3.3 26.1
16:40 1017 30.03 846 24.98 16.1 61 25 -3.7 25.4
16:45 1017 30.03 846 24.98 16 60.8 24 -4.2 24.4
16:50 1017 30.03 846 24.98 15.7 60.3 25 -4.1 24.7
16:55 1017 30.03 846 24.98 15.8 60.5 25 -4.2 24.4
17:00 1017 30.03 846 24.98 15.7 60.3 25 -3.9 24.9
17:05 1017 30.03 846 24.98 15.5 60 25 -4.1 24.6
17:10 1017 30.03 846 24.98 15.4 59.7 25 -4.4 24.2
17:15 1017 30.03 846 24.98 15.5 60 25 -4.3 24.3
17:20 1017 30.03 846 24.98 15.7 60.3 25 -4.2 24.5
17:25 1017 30.03 846 24.98 15.9 60.6 25 -4.2 24.5
17:30 1017 30.03 846 24.98 15.7 60.2 24 -4.8 23.4
17:35 1017 30.03 846 24.98 15.2 59.4 26 -4.3 24.3
17:40 1017 30.03 846 24.98 15.4 59.6 25 -4.4 24.1
17:45 1017 30.03 846 24.98 15.3 59.5 25 -4.5 23.9
17:50 1017 30.03 846 24.98 15.4 59.7 25 -4.5 23.9
17:55 1017 30.03 846 24.98 15.3 59.5 25 -4.5 23.9
18:00 1017 30.03 846 24.98 15.3 59.5 25 -4.3 24.2
18:05 1017 30.03 846 24.98 15.3 59.5 25 -4.7 23.5
18:10 1017 30.03 846 24.98 15 58.9 25 -4.8 23.3
18:15 1017 30.03 846 24.98 14.7 58.5 30 -2.7 27.1
18:20 1017 30.03 846 24.98 13.9 57.1 30 -3.2 26.3
18:25 1017 30.03 846 24.98 13.4 56.1 30 -3.8 25.1
18:30 1017 30.03 846 24.98 13.5 56.3 31 -3.4 25.9
18:35 1017 30.03 846 24.98 13.6 56.5 31 -3.3 26
18:40 1017 30.03 846 24.98 13.6 56.5 30 -3.4 25.8
18:45 1017 30.03 846 24.98 13 55.4 32 -3.4 25.8
18:50 1017 30.03 846 24.98 12.5 54.6 32 -3.6 25.5
18:55 1017 30.03 846 24.98 12.6 54.7 32 -3.8 25.2
19:00 1017 30.03 846 24.98 12.5 54.6 31 -4 24.9
19:05 1017 30.03 846 24.98 12.5 54.6 33 -3.2 26.3
19:10 1017 30.03 846 24.98 12.5 54.5 33 -3.2 26.3
19:15 1017 30.03 846 24.98 12.3 54.1 34 -3.1 26.5
19:20 1017 30.03 846 24.98 12.2 54 35 -2.8 27
19:25 1017 30.03 846 24.98 12.1 53.7 35 -3.1 26.5
19:30 1017 30.03 847 25.01 11.8 53.3 35 -3 26.6
19:35 1017 30.03 847 25.01 11.6 52.9 38 -2.3 27.8
19:40 1018 30.06 847 25.01 11.6 52.9 38 -2.2 28
19:45 1018 30.06 847 25.01 11.4 52.5 39 -2.2 28.1
19:50 1018 30.06 847 25.01 11.2 52.2 40 -1.9 28.5
19:55 1018 30.06 847 25.01 11.2 52.1 39 -2.3 27.9
20:00 1018 30.06 847 25.01 11.1 51.9 40 -2 28.5
20:05 1018 30.06 847 25.01 10.9 51.6 42 -1.5 29.2
20:10 1018 30.06 847 25.01 10.6 51.1 42 -1.6 29
20:15 1018 30.06 847 25.01 10.3 50.5 43 -1.7 29
20:20 1018 30.06 847 25.01 10 50 43 -1.9 28.6
20:25 1018 30.06 847 25.01 9.9 49.8 44 -1.8 28.7
20:30 1018 30.06 847 25.01 9.6 49.3 45 -1.8 28.8
20:35 1018 30.06 847 25.01 9.4 48.9 45 -1.8 28.7
20:40 1018 30.06 848 25.04 9.3 48.7 46 -1.7 28.9
20:45 1018 30.06 848 25.04 9.2 48.6 46 -1.7 29
20:50 1018 30.06 848 25.04 8.9 48.1 47 -1.8 28.8
20:55 1018 30.06 848 25.04 8.8 47.8 47 -2 28.4
21:00 1019 30.09 848 25.04 8.6 47.5 47 -1.9 28.5
21:05 1019 30.09 848 25.04 8.5 47.3 48 -1.8 28.8
21:10 1019 30.09 848 25.04 8.4 47.1 48 -1.9 28.6
21:15 1019 30.09 848 25.04 8.2 46.8 48 -2.1 28.2
21:20 1019 30.09 848 25.04 8.1 46.6 48 -2.1 28.1
21:25 1019 30.09 848 25.04 8 46.4 49 -2.1 28.2
21:30 1019 30.09 848 25.04 7.8 46.1 49 -2.3 27.9
21:35 1019 30.09 848 25.04 7.7 45.9 49 -2.2 28.1
21:40 1019 30.09 848 25.04 7.6 45.6 50 -2.2 28
21:45 1019 30.09 849 25.07 7.5 45.5 50 -2.3 27.9
21:50 1019 30.09 849 25.07 7.5 45.5 50 -2.2 28
21:55 1019 30.09 849 25.07 7.4 45.3 50 -2.4 27.6
22:00 1019 30.09 849 25.07 7.3 45.2 50 -2.3 27.9
22:05 1020 30.12 849 25.07 7.2 45 50 -2.4 27.7
22:10 1020 30.12 849 25.07 7.1 44.8 50 -2.5 27.4
22:15 1020 30.12 849 25.07 7 44.6 50 -2.7 27.2
22:20 1020 30.12 849 25.07 6.8 44.2 50 -2.8 27
22:25 1020 30.12 849 25.07 6.6 43.9 50 -3 26.6
22:30 1020 30.12 849 25.07 6.5 43.6 50 -3.1 26.4
22:35 1020 30.12 849 25.07 6.4 43.6 51 -3.1 26.4
22:40 1020 30.12 849 25.07 6.4 43.5 51 -3.1 26.5
22:45 1020 30.12 849 25.07 6.3 43.3 51 -3.1 26.4
22:50 1020 30.12 849 25.07 6.1 43.1 51 -3.3 26.1
22:55 1020 30.12 849 25.07 6 42.9 51 -3.3 26.1
23:00 1020 30.12 849 25.07 5.9 42.7 51 -3.4 25.9
23:05 1020 30.12 849 25.07 5.8 42.5 51 -3.5 25.7
23:10 1020 30.12 849 25.07 5.8 42.4 51 -3.7 25.4
23:15 1020 30.12 849 25.07 5.7 42.2 52 -3.5 25.6
23:20 1020 30.12 849 25.07 5.5 41.9 52 -3.7 25.4
23:25 1020 30.12 849 25.07 5.4 41.7 52 -3.8 25.1
23:30 1020 30.12 849 25.07 5.3 41.5 50 -4.2 24.5
23:35 1020 30.12 849 25.07 5.4 41.6 50 -4.2 24.4
23:40 1020 30.12 849 25.07 5.5 41.8 50 -4.2 24.5
23:45 1020 30.12 849 25.07 5.5 41.9 50 -4.2 24.5
23:50 1020 30.12 849 25.07 5.6 42 50 -4 24.9
23:55 1020 30.12 849 25.07 5.6 42.1 50 -3.9 25
24:00 1020 30.12 849 25.07 5.6 42 51 -3.8 25.1